createdAt,value
2022-09-04T00:00:48.892Z,94798.97
2022-09-04T00:03:32.057Z,94802.19
2022-09-04T00:06:05.460Z,94806.78
2022-09-04T00:08:59.530Z,94801.97
2022-09-04T00:11:41.513Z,94805.38
2022-09-04T00:14:15.308Z,94812.41
2022-09-04T00:16:48.029Z,94814.06
2022-09-04T00:19:24.341Z,94810.19
2022-09-04T00:21:57.105Z,94803.13
2022-09-04T00:24:26.759Z,94809.41
2022-09-04T00:27:00.328Z,94806.94
2022-09-04T00:29:40.381Z,94804.31
2022-09-04T00:32:21.228Z,94809.50
2022-09-04T00:35:05.479Z,94813.09
2022-09-04T00:37:38.149Z,94817.69
2022-09-04T00:40:11.278Z,94804.59
2022-09-04T00:42:55.877Z,94810.44
2022-09-04T00:45:37.184Z,94806.78
2022-09-04T00:48:20.757Z,94802.38
2022-09-04T00:51:17.549Z,94805.16
2022-09-04T00:54:05.769Z,94808.59
2022-09-04T00:56:59.739Z,94793.03
2022-09-04T00:59:43.260Z,94800.25
2022-09-04T01:02:24.667Z,94803.66
2022-09-04T01:05:04.603Z,94795.38
2022-09-04T01:07:48.908Z,94796.97
2022-09-04T01:10:36.673Z,94801.81
2022-09-04T01:13:10.330Z,94799.78
2022-09-04T01:15:45.143Z,94795.53
2022-09-04T01:18:19.930Z,94806.41
2022-09-04T01:20:57.353Z,94814.25
2022-09-04T01:23:55.435Z,94816.47
2022-09-04T01:26:33.989Z,94802.31
2022-09-04T01:29:18.809Z,94795.47
2022-09-04T01:31:54.901Z,94795.72
2022-09-04T01:34:36.702Z,94795.72
2022-09-04T01:37:19.084Z,94786.84
2022-09-04T01:39:56.978Z,94787.81
2022-09-04T01:42:38.580Z,94792.31
2022-09-04T01:45:07.767Z,94783.84
2022-09-04T01:47:44.488Z,94789.72
2022-09-04T01:50:17.681Z,94778.84
2022-09-04T01:52:54.734Z,94783.84
2022-09-04T01:55:31.576Z,94792.34
2022-09-04T01:58:12.749Z,94789.16
2022-09-04T02:00:53.720Z,94785.28
2022-09-04T02:03:32.764Z,94791.94
2022-09-04T02:06:09.309Z,94787.34
2022-09-04T02:08:49.519Z,94786.88
2022-09-04T02:11:19.932Z,94790.53
2022-09-04T02:14:22.252Z,94785.34
2022-09-04T02:17:05.048Z,94779.16
2022-09-04T02:19:56.264Z,94786.59
2022-09-04T02:22:33.950Z,94789.00
2022-09-04T02:25:08.609Z,94794.50
2022-09-04T02:27:45.076Z,94783.63
2022-09-04T02:30:18.944Z,94782.75
2022-09-04T02:32:53.698Z,94768.91
2022-09-04T02:35:31.416Z,94756.78
2022-09-04T02:38:11.934Z,94763.56
2022-09-04T02:40:49.406Z,94759.94
2022-09-04T02:43:28.994Z,94772.78
2022-09-04T02:46:05.671Z,94771.41
2022-09-04T02:48:46.547Z,94781.63
2022-09-04T02:51:38.718Z,94777.16
2022-09-04T02:54:17.862Z,94774.09
2022-09-04T02:56:53.509Z,94787.59
2022-09-04T02:59:34.992Z,94781.63
2022-09-04T03:02:06.368Z,94784.97
2022-09-04T03:04:41.292Z,94781.78
2022-09-04T03:07:15.644Z,94799.25
2022-09-04T03:09:47.811Z,94794.84
2022-09-04T03:12:30.934Z,94793.22
2022-09-04T03:15:09.268Z,94798.78
2022-09-04T03:17:45.982Z,94800.56
2022-09-04T03:20:20.739Z,94794.06
2022-09-04T03:22:55.654Z,94797.63
2022-09-04T03:25:46.585Z,94786.81
2022-09-04T03:28:33.186Z,94788.56
2022-09-04T03:31:15.793Z,94788.50
2022-09-04T03:33:49.987Z,94783.78
2022-09-04T03:36:24.656Z,94792.78
2022-09-04T03:39:02.867Z,94801.84
2022-09-04T03:41:41.121Z,94804.13
2022-09-04T03:44:20.810Z,94802.53
2022-09-04T03:46:58.920Z,94799.13
2022-09-04T03:49:44.150Z,94812.59
2022-09-04T03:52:21.372Z,94817.69
2022-09-04T03:55:07.048Z,94812.75
2022-09-04T03:57:49.384Z,94819.03
2022-09-04T04:00:20.184Z,94818.47
2022-09-04T04:03:08.871Z,94828.47
2022-09-04T04:05:49.517Z,94818.59
2022-09-04T04:09:04.140Z,94834.34
2022-09-04T04:11:47.203Z,94838.66
2022-09-04T04:14:38.363Z,94863.63
2022-09-04T04:17:22.387Z,94859.78
2022-09-04T04:20:05.523Z,94863.56
2022-09-04T04:22:52.555Z,94866.00
2022-09-04T04:25:43.156Z,94874.19
2022-09-04T04:28:31.571Z,94873.66
2022-09-04T04:31:12.263Z,94865.94
2022-09-04T04:33:50.343Z,94867.19
2022-09-04T04:36:29.205Z,94876.66
2022-09-04T04:39:18.543Z,94886.00
2022-09-04T04:42:10.203Z,94876.28
2022-09-04T04:45:10.724Z,94875.28
2022-09-04T04:47:57.146Z,94862.03
2022-09-04T04:50:36.857Z,94863.38
2022-09-04T04:53:14.506Z,94875.63
2022-09-04T04:55:51.603Z,94882.34
2022-09-04T04:58:31.531Z,94881.28
2022-09-04T05:01:07.295Z,94885.75
2022-09-04T05:03:47.864Z,94891.66
2022-09-04T05:06:23.631Z,94880.19
2022-09-04T05:08:56.932Z,94883.94
2022-09-04T05:11:36.701Z,94876.34
2022-09-04T05:14:21.241Z,94876.25
2022-09-04T05:16:56.601Z,94872.84
2022-09-04T05:19:33.864Z,94874.22
2022-09-04T05:22:10.963Z,94867.31
2022-09-04T05:24:55.749Z,94876.44
2022-09-04T05:28:04.442Z,94886.78
2022-09-04T05:30:43.821Z,94902.28
2022-09-04T05:33:19.554Z,94896.59
2022-09-04T05:35:54.579Z,94888.63
2022-09-04T05:38:32.068Z,94893.28
2022-09-04T05:41:07.648Z,94896.28
2022-09-04T05:43:51.768Z,94903.00
2022-09-04T05:46:39.844Z,94909.94
2022-09-04T05:49:25.338Z,94906.25
2022-09-04T05:52:09.834Z,94910.06
2022-09-04T05:55:14.852Z,94896.34
2022-09-04T05:57:57.293Z,94898.25
2022-09-04T06:00:31.873Z,94886.50
2022-09-04T06:03:48.357Z,94886.59
2022-09-04T06:06:23.707Z,94875.78
2022-09-04T06:09:25.237Z,94868.38
2022-09-04T06:12:19.316Z,94878.19
2022-09-04T06:15:04.790Z,94875.25
2022-09-04T06:17:49.526Z,94872.00
2022-09-04T06:20:46.909Z,94873.19
2022-09-04T06:23:27.236Z,94879.72
2022-09-04T06:26:21.665Z,94876.34
2022-09-04T06:29:05.809Z,94879.44
2022-09-04T06:32:06.323Z,94874.25
2022-09-04T06:35:00.826Z,94876.53
2022-09-04T06:37:38.638Z,94878.31
2022-09-04T06:40:31.437Z,94873.50
2022-09-04T06:43:17.288Z,94884.19
2022-09-04T06:45:58.940Z,94884.00
2022-09-04T06:48:40.707Z,94879.38
2022-09-04T06:51:27.106Z,94884.88
2022-09-04T06:54:11.318Z,94884.06
2022-09-04T06:56:56.027Z,94890.16
2022-09-04T07:00:12.071Z,94883.31
2022-09-04T07:03:04.804Z,94875.22
2022-09-04T07:05:41.581Z,94886.16
2022-09-04T07:08:20.145Z,94882.50
2022-09-04T07:11:00.745Z,94884.09
2022-09-04T07:13:55.664Z,94881.06
2022-09-04T07:16:34.037Z,94883.72
2022-09-04T07:19:21.967Z,94890.94
2022-09-04T07:22:04.009Z,94903.22
2022-09-04T07:24:46.246Z,94906.81
2022-09-04T07:27:22.043Z,94903.34
2022-09-04T07:29:56.017Z,94888.19
2022-09-04T07:32:31.193Z,94896.25
2022-09-04T07:35:08.044Z,94900.06
2022-09-04T07:37:44.659Z,94908.13
2022-09-04T07:40:17.789Z,94911.16
2022-09-04T07:42:52.318Z,94923.94
2022-09-04T07:45:30.155Z,94932.56
2022-09-04T07:48:08.877Z,94925.13
2022-09-04T07:50:40.357Z,94939.19
2022-09-04T07:53:20.853Z,94939.56
2022-09-04T07:55:52.975Z,94935.28
2022-09-04T07:58:49.531Z,94938.75
2022-09-04T08:01:28.444Z,94936.91
2022-09-04T08:04:16.363Z,94933.66
2022-09-04T08:06:50.692Z,94932.81
2022-09-04T08:09:49.621Z,94944.91
2022-09-04T08:12:44.980Z,94949.50
2022-09-04T08:15:20.032Z,94959.41
2022-09-04T08:18:11.747Z,94961.81
2022-09-04T08:20:46.494Z,94956.31
2022-09-04T08:23:29.216Z,94956.03
2022-09-04T08:26:14.236Z,94961.84
2022-09-04T08:29:03.289Z,94966.44
2022-09-04T08:31:33.645Z,94973.03
2022-09-04T08:34:26.243Z,94956.56
2022-09-04T08:37:04.126Z,94965.91
2022-09-04T08:39:37.573Z,94970.72
2022-09-04T08:42:42.184Z,94976.13
2022-09-04T08:46:04.593Z,94976.44
2022-09-04T08:49:24.562Z,94968.38
2022-09-04T08:52:43.055Z,94977.75
2022-09-04T08:55:33.717Z,94978.03
2022-09-04T08:58:48.295Z,94963.09
2022-09-04T09:01:46.136Z,94972.91
2022-09-04T09:04:36.345Z,94992.63
2022-09-04T09:07:38.705Z,94988.63
2022-09-04T09:10:36.700Z,94985.84
2022-09-04T09:13:34.954Z,94991.38
2022-09-04T09:16:26.021Z,95012.50
2022-09-04T09:19:22.873Z,95022.22
2022-09-04T09:22:12.462Z,95033.00
2022-09-04T09:25:15.955Z,95024.19
2022-09-04T09:28:16.340Z,95034.94
2022-09-04T09:31:14.048Z,95028.47
2022-09-04T09:34:15.545Z,95029.09
2022-09-04T09:37:22.734Z,95027.59
2022-09-04T09:40:29.120Z,95025.88
2022-09-04T09:43:42.096Z,95017.78
2022-09-04T09:46:30.162Z,95020.19
2022-09-04T09:49:30.926Z,95023.16
2022-09-04T09:52:22.006Z,95013.66
2022-09-04T09:55:15.948Z,95009.06
2022-09-04T09:58:22.133Z,95004.41
2022-09-04T10:01:08.291Z,94998.88
2022-09-04T10:04:11.818Z,94981.31
2022-09-04T10:07:10.507Z,94993.00
2022-09-04T10:10:18.069Z,95001.44
2022-09-04T10:13:27.205Z,95010.13
2022-09-04T10:16:31.469Z,95007.41
2022-09-04T10:19:30.590Z,94994.63
2022-09-04T10:22:35.092Z,94990.53
2022-09-04T10:25:31.141Z,94986.25
2022-09-04T10:28:26.138Z,94979.88
2022-09-04T10:31:21.314Z,94991.13
2022-09-04T10:34:06.477Z,94980.41
2022-09-04T10:36:47.789Z,94978.34
2022-09-04T10:39:45.161Z,94993.81
2022-09-04T10:42:31.319Z,94996.47
2022-09-04T10:45:18.489Z,94982.06
2022-09-04T10:48:20.058Z,94973.94
2022-09-04T10:51:16.777Z,94958.84
2022-09-04T10:54:08.161Z,94957.31
2022-09-04T10:56:47.249Z,94961.81
2022-09-04T10:59:37.401Z,94955.66
2022-09-04T11:02:35.636Z,94951.34
2022-09-04T11:05:24.821Z,94956.44
2022-09-04T11:08:27.934Z,94945.69
2022-09-04T11:11:10.083Z,94942.00
2022-09-04T11:14:09.079Z,94940.28
2022-09-04T11:17:12.483Z,94950.41
2022-09-04T11:20:20.644Z,94943.88
2022-09-04T11:23:31.815Z,94928.50
2022-09-04T11:26:54.987Z,94935.81
2022-09-04T11:29:55.978Z,94931.28
2022-09-04T11:33:12.056Z,94940.75
2022-09-04T11:36:14.180Z,94946.59
2022-09-04T11:39:20.816Z,94927.44
2022-09-04T11:42:28.957Z,94926.19
2022-09-04T11:45:33.075Z,94918.16
2022-09-04T11:48:19.401Z,94929.44
2022-09-04T11:51:06.736Z,94921.41
2022-09-04T11:54:00.837Z,94927.38
2022-09-04T11:56:40.212Z,94915.22
2022-09-04T11:59:33.446Z,94913.97
2022-09-04T12:02:28.157Z,94910.34
2022-09-04T12:05:09.863Z,94896.78
2022-09-04T12:07:55.420Z,94898.00
2022-09-04T12:10:53.650Z,94889.94
2022-09-04T12:13:47.197Z,94880.47
2022-09-04T12:16:51.728Z,94891.69
2022-09-04T12:20:24.153Z,94885.88
2022-09-04T12:23:37.681Z,94885.81
2022-09-04T12:26:30.503Z,94888.97
2022-09-04T12:29:39.297Z,94882.22
2022-09-04T12:32:35.247Z,94884.72
2022-09-04T12:35:50.913Z,94883.22
2022-09-04T12:38:40.612Z,94894.59
2022-09-04T12:41:16.789Z,94882.97
2022-09-04T12:44:01.655Z,94889.41
2022-09-04T12:46:50.389Z,94891.94
2022-09-04T12:49:43.132Z,94875.56
2022-09-04T12:52:24.689Z,94884.25
2022-09-04T12:55:04.975Z,94881.09
2022-09-04T12:57:42.588Z,94885.94
2022-09-04T13:00:15.550Z,94887.38
2022-09-04T13:02:54.332Z,94868.19
2022-09-04T13:05:52.911Z,94882.78
2022-09-04T13:08:35.678Z,94868.06
2022-09-04T13:11:19.231Z,94871.00
2022-09-04T13:14:00.020Z,94868.63
2022-09-04T13:16:38.512Z,94881.69
2022-09-04T13:19:15.895Z,94877.41
2022-09-04T13:22:07.850Z,94871.84
2022-09-04T13:24:51.444Z,94871.56
2022-09-04T13:27:34.657Z,94871.78
2022-09-04T13:30:09.575Z,94877.94
2022-09-04T13:32:54.794Z,94885.72
2022-09-04T13:35:41.387Z,94878.53
2022-09-04T13:38:33.555Z,94876.06
2022-09-04T13:41:20.149Z,94876.91
2022-09-04T13:44:06.120Z,94874.25
2022-09-04T13:46:38.867Z,94876.91
2022-09-04T13:49:14.905Z,94879.56
2022-09-04T13:51:46.983Z,94880.88
2022-09-04T13:54:20.941Z,94869.16
2022-09-04T13:56:56.657Z,94873.66
2022-09-04T13:59:25.972Z,94875.78
2022-09-04T14:02:00.110Z,94888.53
2022-09-04T14:04:36.671Z,94885.63
2022-09-04T14:07:10.679Z,94870.00
2022-09-04T14:09:45.191Z,94867.38
2022-09-04T14:12:27.385Z,94876.44
2022-09-04T14:16:03.852Z,94876.38
2022-09-04T14:18:47.181Z,94874.06
2022-09-04T14:21:26.641Z,94878.41
2022-09-04T14:24:03.397Z,94874.34
2022-09-04T14:26:42.336Z,94884.09
2022-09-04T14:29:22.301Z,94894.00
2022-09-04T14:32:04.495Z,94892.44
2022-09-04T14:34:43.391Z,94877.97
2022-09-04T14:37:30.189Z,94893.84
2022-09-04T14:40:04.785Z,94901.34
2022-09-04T14:42:44.356Z,94897.75
2022-09-04T14:45:36.081Z,94894.25
2022-09-04T14:48:10.215Z,94887.75
2022-09-04T14:50:49.288Z,94879.84
2022-09-04T14:53:26.343Z,94874.59
2022-09-04T14:56:19.045Z,94894.09
2022-09-04T14:58:51.904Z,94881.50
2022-09-04T15:01:22.263Z,94884.16
2022-09-04T15:03:56.936Z,94875.03
2022-09-04T15:06:32.509Z,94884.72
2022-09-04T15:09:23.392Z,94883.63
2022-09-04T15:12:08.888Z,94895.22
2022-09-04T15:14:41.013Z,94896.16
2022-09-04T15:17:17.446Z,94899.16
2022-09-04T15:19:55.133Z,94904.16
2022-09-04T15:22:30.663Z,94909.84
2022-09-04T15:25:08.965Z,94913.06
2022-09-04T15:27:47.171Z,94906.19
2022-09-04T15:30:21.615Z,94913.88
2022-09-04T15:32:52.141Z,94911.09
2022-09-04T15:35:26.900Z,94914.22
2022-09-04T15:38:07.541Z,94916.88
2022-09-04T15:41:05.816Z,94909.13
2022-09-04T15:43:38.904Z,94912.06
2022-09-04T15:46:14.670Z,94907.94
2022-09-04T15:48:53.376Z,94931.16
2022-09-04T15:51:29.467Z,94926.66
2022-09-04T15:54:22.221Z,94922.41
2022-09-04T15:57:01.218Z,94913.66
2022-09-04T15:59:43.716Z,94912.28
2022-09-04T16:02:24.638Z,94912.19
2022-09-04T16:05:03.385Z,94923.84
2022-09-04T16:07:40.482Z,94929.38
2022-09-04T16:10:17.328Z,94931.69
2022-09-04T16:12:58.047Z,94934.09
2022-09-04T16:15:30.713Z,94933.00
2022-09-04T16:18:02.685Z,94929.06
2022-09-04T16:20:37.519Z,94928.88
2022-09-04T16:23:09.475Z,94918.13
2022-09-04T16:25:40.675Z,94916.19
2022-09-04T16:28:20.236Z,94907.34
2022-09-04T16:30:55.331Z,94904.81
2022-09-04T16:33:28.521Z,94910.56
2022-09-04T16:36:03.145Z,94908.84
2022-09-04T16:38:39.152Z,94908.06
2022-09-04T16:41:13.445Z,94910.94
2022-09-04T16:44:09.100Z,94907.72
2022-09-04T16:46:40.299Z,94902.19
2022-09-04T16:49:19.817Z,94897.50
2022-09-04T16:51:52.072Z,94903.16
2022-09-04T16:54:28.632Z,94902.69
2022-09-04T16:57:12.307Z,94912.41
2022-09-04T16:59:46.489Z,94898.47
2022-09-04T17:02:21.769Z,94891.13
2022-09-04T17:05:00.736Z,94896.06
2022-09-04T17:07:35.918Z,94883.31
2022-09-04T17:10:08.791Z,94887.66
2022-09-04T17:12:52.703Z,94890.53
2022-09-04T17:15:32.132Z,94885.13
2022-09-04T17:18:06.427Z,94882.81
2022-09-04T17:22:44.830Z,94889.22
2022-09-04T17:28:54.384Z,94888.56
2022-09-04T17:29:10.279Z,94891.53
2022-09-04T17:29:36.262Z,94892.03
2022-09-04T17:32:14.299Z,94881.34
2022-09-04T17:40:41.824Z,94874.19
2022-09-04T17:40:57.404Z,94877.88
2022-09-04T17:41:36.215Z,94876.03
2022-09-04T17:44:32.725Z,94893.09
2022-09-04T17:47:14.189Z,94900.84
2022-09-04T17:49:47.004Z,94906.06
2022-09-04T17:52:24.029Z,94908.13
2022-09-04T17:54:52.585Z,94905.47
2022-09-04T17:57:28.566Z,94904.06
2022-09-04T18:00:05.494Z,94907.28
2022-09-04T18:02:42.724Z,94905.47
2022-09-04T18:05:20.321Z,94919.00
2022-09-04T18:08:10.034Z,94920.13
2022-09-04T18:10:52.035Z,94932.56
2022-09-04T18:13:37.699Z,94937.00
2022-09-04T18:16:18.366Z,94927.16
2022-09-04T18:18:52.149Z,94927.56
2022-09-04T18:21:26.789Z,94929.84
2022-09-04T18:24:01.468Z,94937.69
2022-09-04T18:26:40.350Z,94936.59
2022-09-04T18:31:49.558Z,94935.34
2022-09-04T18:37:22.864Z,94932.28
2022-09-04T18:37:26.390Z,94930.28
2022-09-04T18:38:16.607Z,94917.56
2022-09-04T18:44:14.502Z,94918.28
2022-09-04T18:50:20.229Z,94922.91
2022-09-04T18:50:30.191Z,94919.28
2022-09-04T18:50:43.188Z,94922.53
2022-09-04T18:52:21.922Z,94922.91
2022-09-04T18:54:54.653Z,94927.06
2022-09-04T18:58:09.022Z,94908.25
2022-09-04T19:00:45.691Z,94919.44
2022-09-04T19:03:19.294Z,94914.00
2022-09-04T19:05:52.882Z,94906.78
2022-09-04T19:08:32.193Z,94900.41
2022-09-04T19:11:09.430Z,94898.94
2022-09-04T19:13:53.964Z,94897.97
2022-09-04T19:16:29.553Z,94899.19
2022-09-04T19:19:03.314Z,94901.81
2022-09-04T19:21:37.715Z,94905.69
2022-09-04T19:24:18.402Z,94901.44
2022-09-04T19:27:20.537Z,94908.31
2022-09-04T19:30:03.172Z,94906.09
2022-09-04T19:33:02.608Z,94902.94
2022-09-04T19:35:36.982Z,94904.56
2022-09-04T19:43:51.217Z,94917.66
2022-09-04T19:46:05.352Z,94917.06
2022-09-04T19:46:15.633Z,94914.69
2022-09-04T19:47:27.639Z,94930.03
2022-09-04T19:53:18.547Z,94924.19
2022-09-04T19:53:32.833Z,94927.03
2022-09-04T19:55:48.515Z,94927.09
2022-09-04T19:58:21.967Z,94931.94
2022-09-04T20:00:56.296Z,94923.81
2022-09-04T20:03:30.452Z,94919.19
2022-09-04T20:06:20.220Z,94927.47
2022-09-04T20:08:54.630Z,94929.13
2022-09-04T20:11:34.988Z,94929.88
2022-09-04T20:14:14.347Z,94923.69
2022-09-04T20:16:52.624Z,94921.44
2022-09-04T20:19:27.811Z,94925.31
2022-09-04T20:22:02.000Z,94918.28
2022-09-04T20:24:39.712Z,94923.38
2022-09-04T20:27:15.950Z,94918.94
2022-09-04T20:29:55.287Z,94916.56
2022-09-04T20:32:28.550Z,94920.97
2022-09-04T20:35:13.591Z,94922.66
2022-09-04T20:37:46.236Z,94928.47
2022-09-04T20:40:32.077Z,94929.94
2022-09-04T20:43:18.883Z,94930.78
2022-09-04T20:48:47.050Z,94937.28
2022-09-04T20:52:53.681Z,94930.84
2022-09-04T20:52:55.270Z,94930.63
2022-09-04T20:55:19.876Z,94929.22
2022-09-04T21:03:07.239Z,94923.63
2022-09-04T21:03:13.349Z,94923.03
2022-09-04T21:04:05.155Z,94918.97
2022-09-04T21:06:39.879Z,94914.56
2022-09-04T21:09:22.761Z,94910.94
2022-09-04T21:11:54.534Z,94928.66
2022-09-04T21:14:39.768Z,94931.09
2022-09-04T21:17:53.120Z,94931.97
2022-09-04T21:21:00.001Z,94926.09
2022-09-04T21:24:02.945Z,94925.88
2022-09-04T21:26:49.188Z,94927.50
2022-09-04T21:29:50.630Z,94924.09
2022-09-04T21:32:34.913Z,94923.84
2022-09-04T21:35:11.468Z,94927.44
2022-09-04T21:37:57.053Z,94929.66
2022-09-04T21:41:03.270Z,94930.69
2022-09-04T21:44:07.543Z,94939.97
2022-09-04T21:46:59.323Z,94943.78
2022-09-04T21:50:04.918Z,94942.81
2022-09-04T21:53:00.731Z,94948.09
2022-09-04T21:58:52.418Z,94939.63
2022-09-04T22:02:35.290Z,94952.56
2022-09-04T22:02:38.116Z,94960.00
2022-09-04T22:04:55.832Z,94963.03
2022-09-04T22:10:06.681Z,94964.44
2022-09-04T22:13:32.636Z,94958.78
2022-09-04T22:13:49.327Z,94950.66
2022-09-04T22:16:32.361Z,94948.63
2022-09-04T22:19:38.007Z,94941.75
2022-09-04T22:22:29.206Z,94947.44
2022-09-04T22:25:30.769Z,94949.34
2022-09-04T22:28:31.914Z,94943.28
2022-09-04T22:31:31.688Z,94946.13
2022-09-04T22:34:44.217Z,94944.13
2022-09-04T22:37:47.194Z,94937.47
2022-09-04T22:40:32.501Z,94943.16
2022-09-04T22:43:14.430Z,94938.47
2022-09-04T22:46:30.479Z,94944.56
2022-09-04T22:49:21.812Z,94951.44
2022-09-04T22:52:27.466Z,94956.09
2022-09-04T22:55:36.249Z,94952.00
2022-09-04T22:58:18.167Z,94958.28
2022-09-04T23:01:14.589Z,94960.13
2022-09-04T23:04:00.584Z,94959.50
2022-09-04T23:12:23.413Z,94951.59
2022-09-04T23:13:54.383Z,94955.41
2022-09-04T23:13:59.759Z,94961.31
2022-09-04T23:16:37.021Z,94961.69
2022-09-04T23:22:06.190Z,94958.06
2022-09-04T23:26:45.161Z,94963.56
2022-09-04T23:26:45.506Z,94949.56
2022-09-04T23:28:51.656Z,94965.78
2022-09-04T23:31:38.284Z,94972.25
2022-09-04T23:34:27.932Z,94966.66
2022-09-04T23:37:18.693Z,94970.09
2022-09-04T23:40:06.403Z,94976.53
2022-09-04T23:43:12.659Z,94969.47
2022-09-04T23:46:01.691Z,94971.09
2022-09-04T23:48:52.938Z,94977.53
2022-09-04T23:51:31.828Z,94980.34
2022-09-04T23:54:24.736Z,94978.53
2022-09-04T23:57:00.939Z,94983.66
2022-09-04T23:59:47.360Z,94980.84
